Time;durP1;ratioP1;P1;durP2;ratioP2;P2;SDS_P1;SDS_P2;PMS_P1;PMS_P2;Temp;Humidity;BMP_temperature;BMP_pressure;BME280_temperature;BME280_humidity;BME280_pressure;Samples;Min_cycle;Max_cycle;Signal;HPM_P1;HPM_P2
2023/05/19 00:01:49;;;;;;;5.50;3.00;;;;;;;11.39;72.10;99943.00;223379;196;138200;-65
2023/05/19 00:06:52;;;;;;;9.50;3.30;;;;;;;11.39;71.87;99942.65;223455;208;147076;-65
2023/05/19 00:11:56;;;;;;;7.70;3.20;;;;;;;11.41;71.77;99941.10;223255;186;139028;-66
2023/05/19 00:48:01;;;;;;;6.20;3.30;;;;;;;11.33;72.04;99916.65;221377;192;687774;-66
2023/05/19 00:53:05;;;;;;;8.60;3.40;;;;;;;11.31;71.99;99913.20;223257;185;137039;-66
2023/05/19 00:58:10;;;;;;;5.30;2.90;;;;;;;11.29;72.20;99909.21;223417;186;143948;-67
2023/05/19 01:03:19;;;;;;;5.10;3.20;;;;;;;11.26;72.15;99914.67;223199;186;139181;-68
2023/05/19 01:08:22;;;;;;;7.80;3.30;;;;;;;11.20;72.23;99917.65;223641;183;136405;-68
2023/05/19 01:13:27;;;;;;;5.20;3.00;;;;;;;11.19;72.52;99914.52;223687;184;144602;-64
2023/05/19 01:18:44;;;;;;;6.00;3.40;;;;;;;11.20;72.46;99917.85;223719;183;139264;-71
2023/05/19 01:24:10;;;;;;;4.70;3.20;;;;;;;11.29;72.41;99925.02;223634;184;137265;-69
2023/05/19 01:29:35;;;;;;;4.50;3.20;;;;;;;11.32;72.12;99927.18;223698;183;143387;-69
2023/05/19 01:34:43;;;;;;;6.50;3.50;;;;;;;11.30;72.26;99919.46;223611;184;263875;-67
2023/05/19 01:39:47;;;;;;;5.60;3.60;;;;;;;11.33;72.19;99910.42;223636;183;137595;-68
2023/05/19 01:48:11;;;;;;;5.80;3.00;;;;;;;11.34;72.04;99902.23;221600;193;665897;-73
2023/05/19 01:53:15;;;;;;;6.90;3.10;;;;;;;11.28;72.08;99904.45;223254;187;136351;-73
2023/05/19 01:58:27;;;;;;;5.70;2.90;;;;;;;11.31;72.06;99903.78;223199;186;143338;-70
2023/05/19 02:03:59;;;;;;;5.00;2.90;;;;;;;11.34;72.11;99906.30;223783;183;138788;-69
2023/05/19 02:09:39;;;;;;;5.00;3.10;;;;;;;11.40;72.11;99903.30;223754;182;137231;-71
2023/05/19 02:14:53;;;;;;;6.60;3.10;;;;;;;11.39;72.13;99900.52;223804;182;144068;-69
2023/05/19 02:19:56;;;;;;;5.80;3.40;;;;;;;11.35;72.24;99891.68;223782;182;138493;-67
2023/05/19 02:24:59;;;;;;;6.20;3.30;;;;;;;11.30;72.48;99889.77;223805;182;136080;-67
2023/05/19 02:30:03;;;;;;;7.20;3.40;;;;;;;11.27;72.61;99882.29;223824;182;143435;-68
2023/05/19 02:35:07;;;;;;;5.60;3.20;;;;;;;11.22;72.85;99881.32;223754;182;138908;-68
2023/05/19 02:40:10;;;;;;;4.80;2.60;;;;;;;11.21;73.02;99885.80;223734;182;137342;-67
2023/05/19 02:45:13;;;;;;;5.70;3.00;;;;;;;11.27;72.99;99878.02;223685;183;145140;-70
2023/05/19 02:50:16;;;;;;;6.40;4.90;;;;;;;11.33;72.94;99876.84;223635;183;138265;-72
2023/05/19 02:55:19;;;;;;;31.10;23.60;;;;;;;11.41;72.92;99879.26;223702;183;136637;-73
2023/05/19 03:00:23;;;;;;;70.90;54.90;;;;;;;11.46;72.48;99881.68;223634;183;146796;-70
2023/05/19 03:05:26;;;;;;;8.60;5.30;;;;;;;11.44;72.44;99882.86;223540;183;138386;-68
2023/05/19 03:10:30;;;;;;;5.20;3.10;;;;;;;11.41;72.35;99885.52;223569;183;136786;-68
2023/05/19 03:15:34;;;;;;;5.80;2.90;;;;;;;11.33;72.48;99888.04;223616;183;145732;-70
2023/05/19 03:20:37;;;;;;;6.60;2.70;;;;;;;11.31;72.65;99887.80;223745;182;138220;-69
2023/05/19 03:25:43;;;;;;;5.20;2.90;;;;;;;11.35;72.70;99881.55;223778;183;137466;-68
2023/05/19 03:30:48;;;;;;;6.20;3.00;;;;;;;11.37;72.73;99888.54;223556;183;144990;-69
2023/05/19 03:35:56;;;;;;;30.00;23.40;;;;;;;11.41;72.85;99888.55;223588;183;138836;-69
2023/05/19 03:40:59;;;;;;;7.90;5.30;;;;;;;11.48;73.00;99883.04;223666;184;136820;-68
2023/05/19 03:46:02;;;;;;;5.40;3.50;;;;;;;11.50;72.58;99877.72;223724;182;147257;-69
2023/05/19 03:51:30;;;;;;;7.10;3.20;;;;;;;11.46;72.76;99877.27;223594;183;138875;-68
2023/05/19 03:56:50;;;;;;;5.90;2.90;;;;;;;11.44;72.89;99884.44;223697;183;136982;-69
2023/05/19 04:01:54;;;;;;;4.70;3.00;;;;;;;11.45;73.01;99883.54;223647;182;145687;-69
2023/05/19 04:06:57;;;;;;;4.10;3.10;;;;;;;11.50;73.16;99887.52;223538;182;138388;-68
2023/05/19 04:12:03;;;;;;;24.70;18.90;;;;;;;11.56;73.11;99890.73;223611;183;136799;-67
2023/05/19 04:17:07;;;;;;;11.30;6.10;;;;;;;11.65;73.17;99896.85;223680;183;145315;-64
2023/05/19 04:22:10;;;;;;;6.80;3.60;;;;;;;11.68;72.94;99897.77;223656;183;137751;-67
2023/05/19 04:27:15;;;;;;;5.60;3.40;;;;;;;11.66;72.91;99898.76;223666;183;136940;-68
2023/05/19 04:32:24;;;;;;;6.40;3.30;;;;;;;11.66;72.93;99897.34;223572;182;145253;-67
2023/05/19 04:37:28;;;;;;;5.30;3.30;;;;;;;11.65;73.11;99900.26;223703;183;139210;-68
2023/05/19 04:42:32;;;;;;;6.00;3.40;;;;;;;11.69;73.31;99891.15;223640;182;137459;-67
2023/05/19 04:47:36;;;;;;;6.50;3.40;;;;;;;11.76;73.24;99894.34;223750;183;145593;-67
2023/05/19 04:52:41;;;;;;;5.30;3.60;;;;;;;11.82;73.29;99891.16;223667;183;138206;-71
2023/05/19 04:57:50;;;;;;;7.30;4.00;;;;;;;11.88;73.22;99892.84;223657;183;136506;-69
2023/05/19 05:02:56;;;;;;;6.80;4.20;;;;;;;11.92;73.19;99891.17;223676;183;145210;-73
2023/05/19 05:08:01;;;;;;;8.10;4.20;;;;;;;11.93;73.19;99891.50;223548;183;139212;-67
2023/05/19 05:13:09;;;;;;;5.90;3.40;;;;;;;11.93;73.11;99893.06;223722;183;141695;-68
2023/05/19 05:18:14;;;;;;;10.60;4.20;;;;;;;11.99;73.00;99893.09;223694;183;145499;-66
2023/05/19 05:23:18;;;;;;;8.30;4.10;;;;;;;12.06;72.85;99895.06;223686;183;138133;-68
2023/05/19 05:28:22;;;;;;;8.80;4.20;;;;;;;12.18;72.78;99892.98;223677;183;136969;-68
2023/05/19 05:33:25;;;;;;;10.20;4.30;;;;;;;12.24;72.59;99894.77;223641;183;145654;-68
2023/05/19 05:38:29;;;;;;;10.00;4.60;;;;;;;12.24;72.38;99894.76;223718;183;138879;-67
2023/05/19 05:43:34;;;;;;;7.90;4.20;;;;;;;12.24;72.33;99898.50;223699;183;140348;-71
2023/05/19 05:48:40;;;;;;;10.70;4.90;;;;;;;12.23;72.57;99901.05;223704;183;145324;-70
2023/05/19 05:53:50;;;;;;;10.60;5.00;;;;;;;12.21;72.66;99904.75;223570;183;138560;-66
2023/05/19 05:58:54;;;;;;;13.30;5.50;;;;;;;12.20;72.39;99905.86;223662;183;138860;-69
2023/05/19 06:03:57;;;;;;;12.30;6.00;;;;;;;12.28;72.66;99908.45;223670;183;145274;-69
2023/05/19 06:09:01;;;;;;;14.00;6.00;;;;;;;12.37;72.54;99912.41;223459;183;139323;-69
2023/05/19 06:14:04;;;;;;;16.30;6.70;;;;;;;12.41;72.56;99911.60;223612;183;157010;-69
2023/05/19 06:19:27;;;;;;;15.00;7.20;;;;;;;12.47;72.56;99922.00;223750;183;145944;-69
2023/05/19 06:24:30;;;;;;;18.20;7.00;;;;;;;12.45;72.42;99926.19;223542;183;138469;-68
2023/05/19 06:29:33;;;;;;;20.00;7.10;;;;;;;12.47;72.33;99930.34;223698;182;138198;-69
2023/05/19 06:34:39;;;;;;;12.70;7.10;;;;;;;12.47;72.62;99932.45;223559;183;145510;-70
2023/05/19 06:39:42;;;;;;;23.20;7.90;;;;;;;12.52;72.45;99934.67;223619;182;138490;-75
2023/05/19 06:44:56;;;;;;;21.40;8.40;;;;;;;12.58;72.48;99934.34;223626;183;136924;-72
2023/05/19 06:50:02;;;;;;;16.00;8.00;;;;;;;12.61;72.30;99934.92;223574;183;145577;-72
2023/05/19 06:55:07;;;;;;;16.10;8.00;;;;;;;12.60;72.34;99940.30;223575;183;138250;-74
2023/05/19 07:00:12;;;;;;;15.00;7.50;;;;;;;12.55;72.25;99942.88;223565;183;136726;-73
2023/05/19 07:05:21;;;;;;;17.20;8.10;;;;;;;12.55;72.65;99938.99;223614;183;145323;-72
2023/05/19 07:10:28;;;;;;;14.30;7.40;;;;;;;12.61;72.58;99933.28;223520;183;140623;-67
2023/05/19 07:15:31;;;;;;;16.90;7.40;;;;;;;12.68;72.70;99931.64;223628;183;143240;-70
2023/05/19 07:20:35;;;;;;;13.80;7.50;;;;;;;12.83;72.49;99928.33;223429;183;146810;-72
2023/05/19 07:25:42;;;;;;;18.10;8.00;;;;;;;12.88;72.16;99928.05;223539;183;138402;-73
2023/05/19 07:30:48;;;;;;;13.90;7.30;;;;;;;12.91;72.15;99926.24;223660;183;137502;-74
2023/05/19 07:35:52;;;;;;;13.90;7.10;;;;;;;12.92;72.12;99929.04;223660;183;145653;-75
2023/05/19 07:40:55;;;;;;;13.40;7.10;;;;;;;12.97;72.15;99930.38;223552;182;139089;-72
2023/05/19 07:45:58;;;;;;;13.50;6.30;;;;;;;12.99;71.83;99930.04;223633;183;138540;-74
2023/05/19 07:51:02;;;;;;;10.50;5.90;;;;;;;12.97;71.78;99932.46;223695;183;146315;-71
2023/05/19 07:56:05;;;;;;;10.90;6.00;;;;;;;12.99;71.58;99936.67;223686;183;138098;-70
2023/05/19 08:01:08;;;;;;;12.40;7.20;;;;;;;13.02;71.57;99933.61;223756;183;136559;-70
2023/05/19 08:06:11;;;;;;;12.10;6.90;;;;;;;13.05;71.40;99931.36;223597;183;146204;-72
2023/05/19 08:11:14;;;;;;;14.70;7.10;;;;;;;13.09;71.41;99927.38;223618;183;138803;-70
2023/05/19 08:16:17;;;;;;;11.20;6.60;;;;;;;13.09;71.25;99925.80;223594;183;137032;-67
2023/05/19 08:21:20;;;;;;;199.00;131.30;;;;;;;13.16;71.59;99927.84;223685;183;145727;-68
2023/05/19 08:26:25;;;;;;;11.50;6.50;;;;;;;13.31;71.41;99925.02;223670;183;139121;-67
2023/05/19 08:31:28;;;;;;;12.10;5.80;;;;;;;13.36;70.86;99927.77;223745;183;139393;-68
2023/05/19 08:36:32;;;;;;;10.70;5.80;;;;;;;13.44;70.68;99927.60;223634;183;145594;-68
2023/05/19 08:41:36;;;;;;;8.90;6.10;;;;;;;13.52;70.43;99927.52;223717;183;138676;-68
2023/05/19 08:48:13;;;;;;;12.90;6.70;;;;;;;13.49;69.99;99925.58;222058;193;666413;-68
2023/05/19 08:53:27;;;;;;;12.30;7.00;;;;;;;13.42;70.17;99930.41;223561;184;137273;-68
2023/05/19 08:58:33;;;;;;;9.30;6.10;;;;;;;13.38;70.47;99931.72;223645;183;144169;-68
2023/05/19 09:03:37;;;;;;;12.20;6.90;;;;;;;13.38;70.72;99935.48;223461;183;138947;-67
2023/05/19 09:08:41;;;;;;;11.20;6.40;;;;;;;13.39;70.64;99941.10;223453;184;138171;-68
2023/05/19 09:13:44;;;;;;;12.90;6.30;;;;;;;13.40;70.49;99941.63;223628;183;143463;-68
2023/05/19 09:18:55;;;;;;;11.10;6.50;;;;;;;13.41;70.47;99946.34;223574;183;138964;-68
2023/05/19 09:24:06;;;;;;;9.60;5.90;;;;;;;13.51;70.72;99944.86;223412;183;137092;-71
2023/05/19 09:29:13;;;;;;;7.40;5.40;;;;;;;13.55;70.39;99941.63;223617;183;143478;-69
2023/05/19 09:34:17;;;;;;;9.40;5.10;;;;;;;13.57;70.34;99946.45;223378;183;139123;-69
2023/05/19 09:39:22;;;;;;;9.30;5.50;;;;;;;13.54;70.10;99947.73;223603;183;139060;-70
2023/05/19 09:44:29;;;;;;;9.60;5.20;;;;;;;13.55;70.34;99951.23;223719;182;145337;-70
2023/05/19 09:49:32;;;;;;;14.10;8.30;;;;;;;13.57;70.28;99948.94;223827;182;139152;-69
2023/05/19 09:54:36;;;;;;;15.50;9.10;;;;;;;13.65;70.49;99945.95;223796;182;137514;-70
2023/05/19 09:59:40;;;;;;;9.80;5.00;;;;;;;13.68;70.18;99947.38;223693;182;145629;-74
2023/05/19 10:04:43;;;;;;;7.90;5.60;;;;;;;13.67;70.06;99946.07;223631;182;141094;-72
2023/05/19 10:09:47;;;;;;;8.00;5.20;;;;;;;13.66;70.01;99947.73;223591;181;137550;-73
2023/05/19 10:14:53;;;;;;;9.30;5.20;;;;;;;13.68;69.99;99941.17;223697;182;145049;-73
2023/05/19 10:20:06;;;;;;;9.80;4.70;;;;;;;13.72;69.73;99941.11;223629;182;138962;-74
2023/05/19 10:25:10;;;;;;;9.00;4.80;;;;;;;13.74;69.93;99931.72;223810;182;138203;-71
2023/05/19 10:30:19;;;;;;;8.90;5.70;;;;;;;13.86;70.28;99929.76;223731;182;147172;-71
2023/05/19 10:35:49;;;;;;;13.70;4.70;;;;;;;14.00;70.14;99932.64;223750;182;138255;-72
2023/05/19 10:41:01;;;;;;;9.80;4.70;;;;;;;14.00;69.73;99926.23;223774;182;137365;-72
2023/05/19 10:46:05;;;;;;;7.10;4.50;;;;;;;14.02;69.91;99928.23;223616;181;145151;-71
2023/05/19 10:51:10;;;;;;;5.80;4.60;;;;;;;14.01;70.04;99931.19;223695;181;138491;-72
2023/05/19 10:56:28;;;;;;;7.00;4.70;;;;;;;14.00;70.02;99931.73;223745;181;138629;-70
2023/05/19 11:01:33;;;;;;;6.90;4.30;;;;;;;14.01;70.18;99931.30;223758;182;145199;-74
2023/05/19 11:06:39;;;;;;;9.80;4.80;;;;;;;14.06;70.04;99934.23;223652;182;138463;-72
2023/05/19 11:11:52;;;;;;;9.50;5.20;;;;;;;14.09;69.98;99931.56;223826;182;140135;-72
2023/05/19 11:16:57;;;;;;;9.50;6.30;;;;;;;14.15;70.03;99929.39;223721;182;146097;-69
2023/05/19 11:22:09;;;;;;;9.80;6.40;;;;;;;14.20;69.97;99930.09;223798;181;140123;-69
2023/05/19 11:27:30;;;;;;;10.90;7.20;;;;;;;14.26;69.82;99931.39;223737;181;136579;-70
2023/05/19 11:32:37;;;;;;;11.10;6.80;;;;;;;14.23;69.70;99929.20;223743;182;145305;-70
2023/05/19 11:37:41;;;;;;;7.70;5.80;;;;;;;14.17;69.71;99929.77;223543;181;138337;-71
2023/05/19 11:42:44;;;;;;;7.70;5.00;;;;;;;14.17;69.73;99929.45;223732;182;137180;-71
2023/05/19 11:47:48;;;;;;;9.90;6.40;;;;;;;14.19;69.83;99933.20;223632;182;145380;-70
2023/05/19 11:53:04;;;;;;;9.30;6.40;;;;;;;14.26;69.87;99932.07;223746;182;139097;-70
2023/05/19 11:58:08;;;;;;;10.70;6.50;;;;;;;14.33;69.68;99937.13;223667;182;136892;-70
2023/05/19 12:03:11;;;;;;;11.90;7.80;;;;;;;14.35;69.54;99931.67;223697;182;145837;-71
2023/05/19 12:08:17;;;;;;;13.70;8.10;;;;;;;14.33;69.57;99936.77;223611;182;139426;-71
2023/05/19 12:13:21;;;;;;;13.80;8.50;;;;;;;14.33;69.65;99939.10;223705;182;137017;-70
2023/05/19 12:18:29;;;;;;;15.10;9.70;;;;;;;14.35;69.63;99941.52;223658;182;145109;-71
2023/05/19 12:23:33;;;;;;;15.50;9.80;;;;;;;14.38;69.81;99934.73;223668;182;138073;-70
2023/05/19 12:28:36;;;;;;;16.40;11.60;;;;;;;14.41;69.67;99934.66;223653;181;137853;-71
2023/05/19 12:33:39;;;;;;;18.00;14.70;;;;;;;14.43;69.49;99934.53;223660;182;145044;-70
2023/05/19 12:38:44;;;;;;;22.30;15.90;;;;;;;14.44;69.34;99930.73;223573;181;138967;-71
2023/05/19 12:43:47;;;;;;;19.40;16.20;;;;;;;14.46;69.55;99924.40;223737;182;137323;-70
2023/05/19 12:48:50;;;;;;;22.20;15.40;;;;;;;14.53;69.51;99919.33;223658;182;145746;-71
2023/05/19 12:53:53;;;;;;;22.60;14.50;;;;;;;14.53;69.25;99915.73;223751;183;138288;-70
2023/05/19 12:58:59;;;;;;;19.50;15.20;;;;;;;14.49;69.34;99917.09;223675;182;137182;-70
2023/05/19 13:04:03;;;;;;;20.20;15.40;;;;;;;14.40;69.42;99916.89;223663;182;146010;-70
2023/05/19 13:09:09;;;;;;;19.70;16.80;;;;;;;14.36;69.52;99920.03;223615;182;138455;-70
2023/05/19 13:14:14;;;;;;;22.10;17.90;;;;;;;14.40;69.71;99914.55;223651;182;137485;-72
2023/05/19 13:19:18;;;;;;;24.60;19.20;;;;;;;14.44;69.55;99905.57;223637;182;145243;-75
2023/05/19 13:24:25;;;;;;;26.20;19.00;;;;;;;14.42;69.57;99905.29;223596;182;138936;-72
2023/05/19 13:29:28;;;;;;;27.50;19.60;;;;;;;14.44;69.61;99903.96;223724;182;137379;-73
2023/05/19 13:34:31;;;;;;;24.90;18.60;;;;;;;14.45;69.65;99903.75;223726;182;145433;-72
2023/05/19 13:39:35;;;;;;;23.90;18.60;;;;;;;14.42;69.63;99905.49;223640;182;138795;-71
2023/05/19 13:44:38;;;;;;;21.50;16.30;;;;;;;14.41;69.66;99901.45;223753;182;137368;-72
2023/05/19 13:49:41;;;;;;;19.00;14.50;;;;;;;14.42;69.52;99902.63;223769;182;146739;-73
2023/05/19 13:54:44;;;;;;;21.50;17.30;;;;;;;14.46;69.57;99904.02;223785;182;138955;-74
2023/05/19 13:59:47;;;;;;;21.00;16.40;;;;;;;14.53;69.39;99901.31;223684;182;137260;-69
2023/05/19 14:05:13;;;;;;;20.50;16.60;;;;;;;14.51;68.99;99906.23;223651;181;146658;-71
2023/05/19 14:10:16;;;;;;;22.70;16.00;;;;;;;14.46;69.17;99911.50;223683;181;138070;-68
2023/05/19 14:15:20;;;;;;;21.60;15.50;;;;;;;14.45;69.24;99909.09;223663;182;137065;-68
2023/05/19 14:20:23;;;;;;;16.50;13.60;;;;;;;14.43;69.22;99907.75;223694;182;146127;-72
2023/05/19 14:25:29;;;;;;;18.10;13.20;;;;;;;14.41;69.18;99908.64;223688;182;139938;-71
2023/05/19 14:30:32;;;;;;;18.90;13.60;;;;;;;14.38;69.06;99911.64;223676;182;138938;-70
2023/05/19 14:35:35;;;;;;;17.30;15.30;;;;;;;14.39;69.41;99910.73;223753;182;146084;-70
2023/05/19 14:40:41;;;;;;;24.90;17.90;;;;;;;14.40;69.50;99913.31;223688;182;140035;-68
2023/05/19 14:45:45;;;;;;;20.20;16.40;;;;;;;14.41;69.54;99911.44;223452;182;137695;-71
2023/05/19 14:50:49;;;;;;;21.00;16.60;;;;;;;14.43;69.36;99912.79;223426;182;145186;-68
2023/05/19 14:55:52;;;;;;;20.50;14.90;;;;;;;14.42;69.33;99914.07;222439;208;138644;-69
2023/05/19 15:00:58;;;;;;;19.30;15.70;;;;;;;14.39;69.10;99915.35;222343;182;136948;-70
2023/05/19 15:06:02;;;;;;;19.80;16.30;;;;;;;14.35;69.28;99916.35;223500;181;145169;-71
2023/05/19 15:11:05;;;;;;;21.20;16.50;;;;;;;14.32;69.26;99921.54;223389;182;140961;-72
2023/05/19 15:16:09;;;;;;;17.70;14.50;;;;;;;14.31;69.21;99921.25;223435;181;137120;-72
2023/05/19 15:21:20;;;;;;;20.00;16.30;;;;;;;14.30;69.41;99926.45;223485;182;145288;-74
2023/05/19 15:26:23;;;;;;;20.40;17.20;;;;;;;14.33;69.30;99926.28;223441;182;138862;-71
2023/05/19 15:31:26;;;;;;;22.30;17.60;;;;;;;14.35;69.31;99922.92;223447;208;140043;-70
2023/05/19 15:36:30;;;;;;;23.70;18.90;;;;;;;14.36;69.42;99920.02;223438;181;145415;-68
2023/05/19 15:41:36;;;;;;;29.30;19.70;;;;;;;14.33;69.29;99921.77;223388;215;138340;-70
2023/05/19 15:46:39;;;;;;;23.20;19.30;;;;;;;14.31;69.23;99921.07;223424;181;137056;-68
2023/05/19 15:51:43;;;;;;;26.50;20.40;;;;;;;14.29;69.32;99919.89;223493;181;146345;-69
2023/05/19 15:56:46;;;;;;;24.50;19.50;;;;;;;14.27;69.35;99922.70;223452;182;138637;-69
2023/05/19 16:01:50;;;;;;;25.30;20.30;;;;;;;14.30;69.57;99924.53;223540;182;138417;-69
2023/05/19 16:06:55;;;;;;;27.80;20.40;;;;;;;14.34;69.53;99923.68;223287;182;145794;-75
2023/05/19 16:11:58;;;;;;;25.20;21.00;;;;;;;14.33;69.68;99925.70;223372;181;138960;-73
2023/05/19 16:17:02;;;;;;;29.10;21.20;;;;;;;14.31;69.73;99927.10;223629;181;138639;-72
2023/05/19 16:22:05;;;;;;;26.50;20.60;;;;;;;14.25;69.66;99935.88;223569;182;145471;-71
2023/05/19 16:27:08;;;;;;;27.20;21.40;;;;;;;14.18;69.73;99937.91;223395;181;138544;-71
2023/05/19 16:32:11;;;;;;;29.80;21.60;;;;;;;14.12;70.00;99930.98;223414;186;138270;-71
2023/05/19 16:37:15;;;;;;;25.50;19.60;;;;;;;14.09;70.06;99925.31;223487;181;145084;-72
2023/05/19 16:42:18;;;;;;;25.40;19.10;;;;;;;14.07;70.08;99922.91;223550;181;138356;-71
2023/05/19 16:47:22;;;;;;;30.10;22.20;;;;;;;14.11;70.16;99917.65;223457;182;137577;-73
2023/05/19 16:52:25;;;;;;;29.60;21.30;;;;;;;14.16;70.14;99915.04;223366;182;146520;-73
2023/05/19 16:57:28;;;;;;;29.50;21.30;;;;;;;14.20;70.01;99916.41;223467;181;139023;-71
2023/05/19 17:02:31;;;;;;;27.50;20.80;;;;;;;14.24;69.69;99918.11;223461;182;137832;-72
2023/05/19 17:07:35;;;;;;;28.50;21.60;;;;;;;14.24;69.62;99915.45;223552;183;145113;-71
2023/05/19 17:12:38;;;;;;;26.30;20.80;;;;;;;14.22;69.63;99914.27;223441;215;138333;-73
2023/05/19 17:17:41;;;;;;;24.40;18.30;;;;;;;14.19;69.64;99919.80;223432;182;137878;-75
2023/05/19 17:22:45;;;;;;;23.60;17.10;;;;;;;14.19;69.67;99927.34;223385;182;147064;-74
2023/05/19 17:27:57;;;;;;;21.30;18.30;;;;;;;14.20;69.67;99938.51;223443;182;138172;-71
2023/05/19 17:33:01;;;;;;;26.70;19.20;;;;;;;14.23;69.81;99945.31;223369;204;137279;-69
2023/05/19 17:38:04;;;;;;;29.50;20.60;;;;;;;14.26;69.68;99945.09;223493;215;147313;-72
2023/05/19 17:43:07;;;;;;;25.90;20.50;;;;;;;14.26;69.69;99950.43;223428;182;139663;-70
2023/05/19 17:48:10;;;;;;;23.00;18.80;;;;;;;14.25;69.53;99953.40;223448;182;137661;-70
2023/05/19 17:53:14;;;;;;;27.10;19.60;;;;;;;14.21;69.37;99951.66;223462;182;149480;-67
2023/05/19 17:58:18;;;;;;;24.70;17.20;;;;;;;14.13;69.63;99949.48;223310;182;138378;-70
2023/05/19 18:03:22;;;;;;;513.70;370.00;;;;;;;14.09;69.90;99955.78;223428;182;138005;-70
2023/05/19 18:08:27;;;;;;;25.80;19.40;;;;;;;14.15;69.99;99958.08;223255;182;147202;-70
2023/05/19 18:13:30;;;;;;;19.20;14.90;;;;;;;14.15;69.68;99957.59;223489;212;138468;-71
2023/05/19 18:18:36;;;;;;;18.50;13.50;;;;;;;14.11;69.59;99955.66;223433;182;137104;-70
2023/05/19 18:48:06;;;;;;;20.70;15.30;;;;;;;13.88;70.22;99969.37;218977;188;665863;-73
2023/05/19 18:53:10;;;;;;;21.10;16.30;;;;;;;13.89;70.17;99971.48;222977;183;141197;-74
2023/05/19 18:58:14;;;;;;;23.60;16.80;;;;;;;13.91;70.41;99970.79;223000;183;143898;-76
2023/05/19 19:03:18;;;;;;;21.40;16.50;;;;;;;13.89;70.45;99971.13;223464;183;138928;-73
2023/05/19 19:08:21;;;;;;;22.10;16.50;;;;;;;13.85;70.51;99973.88;223588;182;137236;-73
2023/05/19 19:13:28;;;;;;;18.50;15.10;;;;;;;13.81;70.68;99982.11;223408;184;145740;-72
2023/05/19 19:18:33;;;;;;;21.40;16.10;;;;;;;13.81;70.70;99984.45;223514;182;138728;-73
2023/05/19 19:23:37;;;;;;;20.60;15.80;;;;;;;13.88;70.75;99992.77;223429;184;136563;-71
2023/05/19 19:28:40;;;;;;;23.40;17.50;;;;;;;13.94;70.61;99993.30;223128;183;143256;-66
2023/05/19 19:33:44;;;;;;;46.50;35.70;;;;;;;14.03;70.50;99989.37;223459;183;141644;-65
2023/05/19 19:38:48;;;;;;;22.60;18.80;;;;;;;14.06;70.60;99990.77;223393;184;137288;-64
2023/05/19 19:43:51;;;;;;;139.50;111.30;;;;;;;14.03;70.33;99998.10;223433;184;145774;-64
2023/05/19 19:49:00;;;;;;;59.80;46.50;;;;;;;13.98;70.46;100004.45;223282;184;140982;-65
2023/05/19 19:54:04;;;;;;;23.90;17.10;;;;;;;13.96;70.60;99999.08;223365;184;137833;-65
2023/05/19 19:59:07;;;;;;;21.60;17.20;;;;;;;13.91;70.45;99992.77;223428;182;145207;-63
2023/05/19 20:04:11;;;;;;;29.20;18.80;;;;;;;13.90;70.55;99991.95;223391;182;139923;-65
2023/05/19 20:09:15;;;;;;;24.30;19.30;;;;;;;13.89;70.60;99992.33;223411;182;136896;-65
2023/05/19 20:14:18;;;;;;;25.00;19.20;;;;;;;13.88;70.61;99986.00;223413;215;145521;-64
2023/05/19 20:19:24;;;;;;;27.80;19.50;;;;;;;13.84;70.78;99989.45;223418;182;138372;-64
2023/05/19 20:24:28;;;;;;;27.60;19.80;;;;;;;13.78;70.93;99987.48;223515;182;137932;-63
2023/05/19 20:33:27;;;;;;;188.60;144.10;;;;;;;13.73;71.19;99986.54;221907;193;665713;-63
2023/05/19 20:38:30;;;;;;;29.80;21.30;;;;;;;13.81;71.84;99990.86;223522;205;137152;-64
2023/05/19 20:43:33;;;;;;;24.20;19.60;;;;;;;13.94;71.22;99985.23;223529;183;143624;-65
2023/05/19 20:48:36;;;;;;;28.00;20.20;;;;;;;13.94;70.88;99986.14;223437;182;138346;-63
2023/05/19 20:53:40;;;;;;;26.20;20.00;;;;;;;13.93;70.87;99980.50;223525;182;138253;-64
2023/05/19 20:58:43;;;;;;;26.30;20.10;;;;;;;13.88;70.89;99976.51;223426;182;145506;-66
2023/05/19 21:03:46;;;;;;;29.00;21.40;;;;;;;13.83;70.90;99976.98;223510;182;139337;-64
2023/05/19 21:08:49;;;;;;;30.10;21.20;;;;;;;13.77;70.86;99979.34;223416;182;137235;-64
2023/05/19 21:13:54;;;;;;;65.30;50.00;;;;;;;13.70;71.20;99977.08;223569;193;144061;-64
2023/05/19 21:18:59;;;;;;;27.10;20.50;;;;;;;13.70;71.40;99981.89;223544;182;139807;-65
2023/05/19 21:24:02;;;;;;;27.80;20.50;;;;;;;13.76;71.31;99983.68;223652;182;137839;-65
2023/05/19 21:33:27;;;;;;;31.80;21.90;;;;;;;13.80;71.33;99979.36;221915;192;666741;-65
2023/05/19 21:38:30;;;;;;;27.30;21.40;;;;;;;13.77;71.22;99982.39;223610;183;140200;-64
2023/05/19 21:43:33;;;;;;;27.30;21.00;;;;;;;13.71;71.25;99977.73;223669;184;144344;-63
2023/05/19 21:48:36;;;;;;;30.40;21.30;;;;;;;13.66;71.36;99983.03;223681;183;138871;-64
2023/05/19 21:53:39;;;;;;;27.30;19.30;;;;;;;13.61;71.60;99981.90;223635;183;138238;-65
2023/05/19 21:58:43;;;;;;;27.60;20.50;;;;;;;13.62;71.62;99980.63;223693;184;143444;-64
2023/05/19 22:03:46;;;;;;;24.90;19.20;;;;;;;13.68;71.71;99984.89;223547;183;138341;-63
2023/05/19 22:08:49;;;;;;;30.60;21.40;;;;;;;13.71;71.52;99980.58;223346;184;136760;-65
2023/05/19 22:13:53;;;;;;;26.60;17.80;;;;;;;13.71;71.61;99980.39;223391;183;143365;-64
2023/05/19 22:18:56;;;;;;;24.20;17.40;;;;;;;13.70;71.42;99980.83;223381;183;138261;-65
2023/05/19 22:23:59;;;;;;;24.60;17.50;;;;;;;13.63;71.41;99982.31;223365;184;136563;-64
2023/05/19 22:29:03;;;;;;;21.00;15.50;;;;;;;13.55;71.58;99979.43;223329;185;146183;-67
2023/05/19 22:34:06;;;;;;;21.10;14.40;;;;;;;13.55;71.64;99977.81;223261;184;138258;-64
2023/05/19 22:39:11;;;;;;;22.50;16.80;;;;;;;13.60;71.64;99974.84;223305;183;138360;-66
2023/05/19 22:44:15;;;;;;;22.90;16.50;;;;;;;13.67;71.58;99964.98;223307;184;145813;-66
2023/05/19 22:49:20;;;;;;;25.60;16.60;;;;;;;13.70;71.44;99960.66;223243;184;139261;-64
2023/05/19 22:54:23;;;;;;;24.10;16.80;;;;;;;13.70;71.31;99965.30;223280;184;137085;-63
2023/05/19 22:59:26;;;;;;;23.70;15.70;;;;;;;13.62;71.45;99960.82;223162;184;145428;-64
2023/05/19 23:04:30;;;;;;;20.10;14.00;;;;;;;13.54;71.38;99956.66;223252;184;138170;-65
2023/05/19 23:09:34;;;;;;;21.30;15.60;;;;;;;13.47;71.61;99946.52;223206;184;137939;-65
2023/05/19 23:14:37;;;;;;;23.30;16.10;;;;;;;13.52;71.68;99945.02;223331;184;145289;-65
2023/05/19 23:19:40;;;;;;;21.80;16.50;;;;;;;13.51;71.76;99935.23;223403;184;138293;-63
2023/05/19 23:24:43;;;;;;;21.70;15.30;;;;;;;13.54;71.83;99936.33;223340;184;136516;-64
2023/05/19 23:29:47;;;;;;;21.70;15.80;;;;;;;13.53;71.75;99929.95;223355;184;144989;-63
2023/05/19 23:34:51;;;;;;;21.00;16.10;;;;;;;13.45;72.04;99921.84;223309;184;139051;-64
2023/05/19 23:39:54;;;;;;;21.70;14.80;;;;;;;13.39;72.14;99921.70;223369;184;137287;-67
2023/05/19 23:44:57;;;;;;;24.30;15.80;;;;;;;13.35;72.44;99922.66;223349;183;145287;-65
2023/05/19 23:50:01;;;;;;;22.20;15.90;;;;;;;13.40;72.29;99917.19;223463;184;150147;-63
2023/05/19 23:55:06;;;;;;;21.80;15.30;;;;;;;13.49;72.49;99916.96;223355;184;137248;-65
